sensor_id;sensor_type;location;lat;lon;timestamp;P1;durP1;ratioP1;P2;durP2;ratioP2
70455;SDS011;57916;51.996;5.180;2024-03-23T00:53:52;37.08;;;9.65;;
70455;SDS011;57916;51.996;5.180;2024-03-23T00:56:18;33.92;;;9.68;;
70455;SDS011;57916;51.996;5.180;2024-03-23T00:58:44;35.72;;;9.57;;
70455;SDS011;57916;51.996;5.180;2024-03-23T01:01:11;32.47;;;10.15;;
70455;SDS011;57916;51.996;5.180;2024-03-23T01:03:37;39.97;;;10.10;;
70455;SDS011;57916;51.996;5.180;2024-03-23T01:06:03;35.55;;;9.30;;
70455;SDS011;57916;51.996;5.180;2024-03-23T01:08:29;30.95;;;9.45;;
70455;SDS011;57916;51.996;5.180;2024-03-23T01:10:56;35.80;;;9.57;;
70455;SDS011;57916;51.996;5.180;2024-03-23T01:13:26;37.40;;;9.50;;
70455;SDS011;57916;51.996;5.180;2024-03-23T01:15:54;35.05;;;9.25;;
70455;SDS011;57916;51.996;5.180;2024-03-23T01:18:21;39.80;;;9.25;;
70455;SDS011;57916;51.996;5.180;2024-03-23T01:20:48;29.83;;;8.50;;
70455;SDS011;57916;51.996;5.180;2024-03-23T01:23:14;33.00;;;9.20;;
70455;SDS011;57916;51.996;5.180;2024-03-23T01:25:41;33.67;;;8.98;;
70455;SDS011;57916;51.996;5.180;2024-03-23T01:28:07;33.78;;;8.82;;
70455;SDS011;57916;51.996;5.180;2024-03-23T01:30:33;28.85;;;8.95;;
70455;SDS011;57916;51.996;5.180;2024-03-23T01:33:00;29.70;;;8.57;;
70455;SDS011;57916;51.996;5.180;2024-03-23T01:35:26;32.65;;;8.48;;
70455;SDS011;57916;51.996;5.180;2024-03-23T01:37:53;35.33;;;9.27;;
70455;SDS011;57916;51.996;5.180;2024-03-23T01:40:19;26.80;;;8.13;;
70455;SDS011;57916;51.996;5.180;2024-03-23T01:45:30;35.70;;;8.50;;
70455;SDS011;57916;51.996;5.180;2024-03-23T01:47:59;27.17;;;8.40;;
70455;SDS011;57916;51.996;5.180;2024-03-23T01:50:26;28.13;;;7.83;;
70455;SDS011;57916;51.996;5.180;2024-03-23T01:52:53;34.33;;;8.70;;
70455;SDS011;57916;51.996;5.180;2024-03-23T01:55:19;19.67;;;8.18;;
70455;SDS011;57916;51.996;5.180;2024-03-23T01:57:46;35.40;;;8.20;;
70455;SDS011;57916;51.996;5.180;2024-03-23T02:00:12;25.38;;;8.10;;
70455;SDS011;57916;51.996;5.180;2024-03-23T02:02:45;32.08;;;7.95;;
70455;SDS011;57916;51.996;5.180;2024-03-23T02:05:11;24.50;;;7.53;;
70455;SDS011;57916;51.996;5.180;2024-03-23T02:07:38;28.17;;;7.35;;
70455;SDS011;57916;51.996;5.180;2024-03-23T02:10:08;29.30;;;7.28;;
70455;SDS011;57916;51.996;5.180;2024-03-23T02:12:36;25.40;;;7.13;;
70455;SDS011;57916;51.996;5.180;2024-03-23T02:15:02;26.65;;;7.35;;
70455;SDS011;57916;51.996;5.180;2024-03-23T02:17:30;24.38;;;6.68;;
70455;SDS011;57916;51.996;5.180;2024-03-23T02:19:57;26.50;;;6.65;;
70455;SDS011;57916;51.996;5.180;2024-03-23T02:22:23;29.48;;;6.57;;
70455;SDS011;57916;51.996;5.180;2024-03-23T02:24:49;38.63;;;7.25;;
70455;SDS011;57916;51.996;5.180;2024-03-23T02:27:15;27.05;;;6.63;;
70455;SDS011;57916;51.996;5.180;2024-03-23T02:29:41;21.52;;;6.38;;
70455;SDS011;57916;51.996;5.180;2024-03-23T02:32:07;26.55;;;6.50;;
70455;SDS011;57916;51.996;5.180;2024-03-23T02:34:35;14.52;;;6.10;;
70455;SDS011;57916;51.996;5.180;2024-03-23T02:37:01;28.17;;;6.55;;
70455;SDS011;57916;51.996;5.180;2024-03-23T02:39:27;22.52;;;6.25;;
70455;SDS011;57916;51.996;5.180;2024-03-23T02:41:53;22.58;;;6.50;;
70455;SDS011;57916;51.996;5.180;2024-03-23T02:44:19;24.90;;;6.15;;
70455;SDS011;57916;51.996;5.180;2024-03-23T02:46:45;23.70;;;6.47;;
70455;SDS011;57916;51.996;5.180;2024-03-23T02:49:11;22.70;;;6.03;;
70455;SDS011;57916;51.996;5.180;2024-03-23T02:51:38;24.23;;;6.07;;
70455;SDS011;57916;51.996;5.180;2024-03-23T02:54:04;21.17;;;5.90;;
70455;SDS011;57916;51.996;5.180;2024-03-23T02:56:32;18.95;;;5.80;;
70455;SDS011;57916;51.996;5.180;2024-03-23T02:58:58;21.40;;;5.75;;
70455;SDS011;57916;51.996;5.180;2024-03-23T03:01:24;17.55;;;4.93;;
70455;SDS011;57916;51.996;5.180;2024-03-23T03:03:51;16.05;;;4.68;;
70455;SDS011;57916;51.996;5.180;2024-03-23T03:06:26;23.58;;;5.85;;
70455;SDS011;57916;51.996;5.180;2024-03-23T03:08:53;24.25;;;5.18;;
70455;SDS011;57916;51.996;5.180;2024-03-23T03:11:19;17.35;;;4.75;;
70455;SDS011;57916;51.996;5.180;2024-03-23T03:13:45;19.58;;;4.72;;
70455;SDS011;57916;51.996;5.180;2024-03-23T03:16:11;18.52;;;4.30;;
70455;SDS011;57916;51.996;5.180;2024-03-23T03:18:38;22.65;;;3.83;;
70455;SDS011;57916;51.996;5.180;2024-03-23T03:21:06;22.13;;;4.05;;
70455;SDS011;57916;51.996;5.180;2024-03-23T03:23:36;20.30;;;3.88;;
70455;SDS011;57916;51.996;5.180;2024-03-23T03:26:03;18.95;;;3.97;;
70455;SDS011;57916;51.996;5.180;2024-03-23T03:28:32;18.63;;;3.33;;
70455;SDS011;57916;51.996;5.180;2024-03-23T03:31:00;23.20;;;3.97;;
70455;SDS011;57916;51.996;5.180;2024-03-23T03:33:26;17.00;;;3.33;;
70455;SDS011;57916;51.996;5.180;2024-03-23T03:35:53;16.38;;;3.80;;
70455;SDS011;57916;51.996;5.180;2024-03-23T03:38:19;19.23;;;3.53;;
70455;SDS011;57916;51.996;5.180;2024-03-23T03:40:46;15.68;;;3.33;;
70455;SDS011;57916;51.996;5.180;2024-03-23T03:43:12;15.35;;;3.38;;
70455;SDS011;57916;51.996;5.180;2024-03-23T03:45:38;17.10;;;3.53;;
70455;SDS011;57916;51.996;5.180;2024-03-23T03:48:04;14.45;;;3.60;;
70455;SDS011;57916;51.996;5.180;2024-03-23T03:50:31;13.80;;;3.25;;
70455;SDS011;57916;51.996;5.180;2024-03-23T03:52:57;17.08;;;3.50;;
70455;SDS011;57916;51.996;5.180;2024-03-23T03:55:23;23.52;;;3.25;;
70455;SDS011;57916;51.996;5.180;2024-03-23T03:57:49;21.67;;;3.63;;
70455;SDS011;57916;51.996;5.180;2024-03-23T04:00:15;18.48;;;3.65;;
70455;SDS011;57916;51.996;5.180;2024-03-23T04:02:41;13.60;;;3.22;;
70455;SDS011;57916;51.996;5.180;2024-03-23T04:05:07;12.82;;;2.95;;
70455;SDS011;57916;51.996;5.180;2024-03-23T04:07:33;13.23;;;3.00;;
70455;SDS011;57916;51.996;5.180;2024-03-23T04:09:59;14.75;;;3.30;;
70455;SDS011;57916;51.996;5.180;2024-03-23T04:12:25;14.35;;;3.38;;
70455;SDS011;57916;51.996;5.180;2024-03-23T04:14:51;18.48;;;3.22;;
70455;SDS011;57916;51.996;5.180;2024-03-23T04:17:17;14.98;;;3.50;;
70455;SDS011;57916;51.996;5.180;2024-03-23T04:19:44;22.65;;;3.65;;
70455;SDS011;57916;51.996;5.180;2024-03-23T04:22:10;11.82;;;3.15;;
70455;SDS011;57916;51.996;5.180;2024-03-23T04:24:37;17.02;;;3.10;;
70455;SDS011;57916;51.996;5.180;2024-03-23T04:27:03;13.82;;;3.10;;
70455;SDS011;57916;51.996;5.180;2024-03-23T04:29:29;19.60;;;3.25;;
70455;SDS011;57916;51.996;5.180;2024-03-23T04:31:55;16.90;;;3.23;;
70455;SDS011;57916;51.996;5.180;2024-03-23T04:34:21;17.67;;;3.40;;
70455;SDS011;57916;51.996;5.180;2024-03-23T04:36:50;15.45;;;3.03;;
70455;SDS011;57916;51.996;5.180;2024-03-23T04:39:16;12.85;;;3.00;;
70455;SDS011;57916;51.996;5.180;2024-03-23T04:41:42;13.73;;;2.88;;
70455;SDS011;57916;51.996;5.180;2024-03-23T04:44:08;16.63;;;2.70;;
70455;SDS011;57916;51.996;5.180;2024-03-23T04:46:34;14.55;;;3.20;;
70455;SDS011;57916;51.996;5.180;2024-03-23T04:49:00;11.80;;;2.78;;
70455;SDS011;57916;51.996;5.180;2024-03-23T04:51:26;14.88;;;3.03;;
70455;SDS011;57916;51.996;5.180;2024-03-23T04:53:52;9.30;;;2.17;;
70455;SDS011;57916;51.996;5.180;2024-03-23T04:56:18;14.02;;;2.50;;
70455;SDS011;57916;51.996;5.180;2024-03-23T04:58:44;13.25;;;2.28;;
70455;SDS011;57916;51.996;5.180;2024-03-23T05:01:11;11.50;;;2.30;;
70455;SDS011;57916;51.996;5.180;2024-03-23T05:03:37;16.80;;;2.95;;
70455;SDS011;57916;51.996;5.180;2024-03-23T05:06:03;10.55;;;2.60;;
70455;SDS011;57916;51.996;5.180;2024-03-23T05:08:30;14.27;;;2.33;;
70455;SDS011;57916;51.996;5.180;2024-03-23T05:10:56;12.90;;;2.55;;
70455;SDS011;57916;51.996;5.180;2024-03-23T05:13:22;17.38;;;2.60;;
70455;SDS011;57916;51.996;5.180;2024-03-23T05:15:52;15.45;;;1.95;;
70455;SDS011;57916;51.996;5.180;2024-03-23T05:18:19;12.30;;;2.03;;
70455;SDS011;57916;51.996;5.180;2024-03-23T05:20:45;18.67;;;2.55;;
70455;SDS011;57916;51.996;5.180;2024-03-23T05:23:11;13.15;;;1.92;;
70455;SDS011;57916;51.996;5.180;2024-03-23T05:25:37;10.27;;;1.90;;
70455;SDS011;57916;51.996;5.180;2024-03-23T05:28:03;9.95;;;1.80;;
70455;SDS011;57916;51.996;5.180;2024-03-23T05:30:30;16.00;;;2.42;;
70455;SDS011;57916;51.996;5.180;2024-03-23T05:32:56;10.68;;;2.10;;
70455;SDS011;57916;51.996;5.180;2024-03-23T05:35:22;13.43;;;1.98;;
70455;SDS011;57916;51.996;5.180;2024-03-23T05:37:48;14.02;;;2.20;;
70455;SDS011;57916;51.996;5.180;2024-03-23T05:40:15;6.38;;;1.58;;
70455;SDS011;57916;51.996;5.180;2024-03-23T05:42:41;13.27;;;2.17;;
70455;SDS011;57916;51.996;5.180;2024-03-23T05:45:07;13.88;;;2.20;;
70455;SDS011;57916;51.996;5.180;2024-03-23T05:47:34;14.27;;;2.22;;
70455;SDS011;57916;51.996;5.180;2024-03-23T05:50:00;11.32;;;2.00;;
70455;SDS011;57916;51.996;5.180;2024-03-23T05:52:27;11.00;;;2.30;;
70455;SDS011;57916;51.996;5.180;2024-03-23T05:54:53;16.63;;;2.65;;
70455;SDS011;57916;51.996;5.180;2024-03-23T05:57:19;13.00;;;1.92;;
70455;SDS011;57916;51.996;5.180;2024-03-23T05:59:45;13.73;;;2.20;;
70455;SDS011;57916;51.996;5.180;2024-03-23T06:02:11;12.37;;;2.17;;
70455;SDS011;57916;51.996;5.180;2024-03-23T06:04:37;14.18;;;2.10;;
70455;SDS011;57916;51.996;5.180;2024-03-23T06:07:04;17.42;;;3.50;;
70455;SDS011;57916;51.996;5.180;2024-03-23T06:09:39;14.65;;;1.92;;
70455;SDS011;57916;51.996;5.180;2024-03-23T06:12:06;16.42;;;2.30;;
70455;SDS011;57916;51.996;5.180;2024-03-23T06:14:32;16.05;;;2.10;;
70455;SDS011;57916;51.996;5.180;2024-03-23T06:16:59;11.63;;;1.98;;
70455;SDS011;57916;51.996;5.180;2024-03-23T06:19:26;11.85;;;2.22;;
70455;SDS011;57916;51.996;5.180;2024-03-23T06:21:53;14.53;;;2.60;;
70455;SDS011;57916;51.996;5.180;2024-03-23T06:24:22;9.63;;;2.25;;
70455;SDS011;57916;51.996;5.180;2024-03-23T06:26:49;9.88;;;2.10;;
70455;SDS011;57916;51.996;5.180;2024-03-23T06:29:15;12.93;;;2.33;;
70455;SDS011;57916;51.996;5.180;2024-03-23T06:31:41;12.18;;;2.40;;
70455;SDS011;57916;51.996;5.180;2024-03-23T06:34:07;9.18;;;2.15;;
70455;SDS011;57916;51.996;5.180;2024-03-23T06:36:34;12.00;;;2.60;;
70455;SDS011;57916;51.996;5.180;2024-03-23T06:39:00;11.37;;;2.20;;
70455;SDS011;57916;51.996;5.180;2024-03-23T06:41:26;9.20;;;2.40;;
70455;SDS011;57916;51.996;5.180;2024-03-23T06:43:52;12.85;;;2.40;;
70455;SDS011;57916;51.996;5.180;2024-03-23T06:46:18;14.93;;;2.60;;
70455;SDS011;57916;51.996;5.180;2024-03-23T06:48:47;16.38;;;2.30;;
70455;SDS011;57916;51.996;5.180;2024-03-23T06:51:13;15.02;;;2.40;;
70455;SDS011;57916;51.996;5.180;2024-03-23T06:53:39;10.27;;;2.13;;
70455;SDS011;57916;51.996;5.180;2024-03-23T06:56:05;11.47;;;2.43;;
70455;SDS011;57916;51.996;5.180;2024-03-23T06:58:32;9.68;;;2.20;;
70455;SDS011;57916;51.996;5.180;2024-03-23T07:00:58;13.15;;;2.28;;
70455;SDS011;57916;51.996;5.180;2024-03-23T07:03:24;15.27;;;2.70;;
70455;SDS011;57916;51.996;5.180;2024-03-23T07:05:51;7.93;;;2.50;;
70455;SDS011;57916;51.996;5.180;2024-03-23T07:08:17;11.77;;;2.53;;
70455;SDS011;57916;51.996;5.180;2024-03-23T07:10:47;12.98;;;1.98;;
70455;SDS011;57916;51.996;5.180;2024-03-23T07:13:13;11.55;;;2.22;;
70455;SDS011;57916;51.996;5.180;2024-03-23T07:15:39;9.45;;;2.17;;
70455;SDS011;57916;51.996;5.180;2024-03-23T07:18:05;10.50;;;2.10;;
70455;SDS011;57916;51.996;5.180;2024-03-23T07:20:32;12.05;;;2.30;;
70455;SDS011;57916;51.996;5.180;2024-03-23T07:22:58;11.88;;;2.20;;
70455;SDS011;57916;51.996;5.180;2024-03-23T07:25:24;8.50;;;2.20;;
70455;SDS011;57916;51.996;5.180;2024-03-23T07:27:52;11.95;;;2.40;;
70455;SDS011;57916;51.996;5.180;2024-03-23T07:30:19;9.57;;;1.98;;
70455;SDS011;57916;51.996;5.180;2024-03-23T07:32:45;9.95;;;2.17;;
70455;SDS011;57916;51.996;5.180;2024-03-23T07:35:11;9.98;;;2.00;;
70455;SDS011;57916;51.996;5.180;2024-03-23T07:37:37;10.43;;;2.05;;
70455;SDS011;57916;51.996;5.180;2024-03-23T07:40:03;12.63;;;2.10;;
70455;SDS011;57916;51.996;5.180;2024-03-23T07:42:29;8.23;;;1.90;;
70455;SDS011;57916;51.996;5.180;2024-03-23T07:44:55;9.90;;;2.13;;
70455;SDS011;57916;51.996;5.180;2024-03-23T07:47:22;10.98;;;2.10;;
70455;SDS011;57916;51.996;5.180;2024-03-23T07:49:48;8.50;;;1.85;;
70455;SDS011;57916;51.996;5.180;2024-03-23T07:52:14;12.45;;;2.13;;
70455;SDS011;57916;51.996;5.180;2024-03-23T07:54:40;11.18;;;2.17;;
70455;SDS011;57916;51.996;5.180;2024-03-23T07:57:07;8.75;;;1.90;;
70455;SDS011;57916;51.996;5.180;2024-03-23T07:59:32;10.65;;;1.98;;
70455;SDS011;57916;51.996;5.180;2024-03-23T08:01:59;6.65;;;1.65;;
70455;SDS011;57916;51.996;5.180;2024-03-23T08:04:27;10.07;;;1.83;;
70455;SDS011;57916;51.996;5.180;2024-03-23T08:06:53;12.37;;;1.93;;
70455;SDS011;57916;51.996;5.180;2024-03-23T08:09:19;12.30;;;1.98;;
70455;SDS011;57916;51.996;5.180;2024-03-23T08:11:45;14.18;;;2.00;;
70455;SDS011;57916;51.996;5.180;2024-03-23T08:14:12;9.93;;;2.00;;
70455;SDS011;57916;51.996;5.180;2024-03-23T08:16:38;9.38;;;2.00;;
70455;SDS011;57916;51.996;5.180;2024-03-23T08:19:04;7.30;;;1.50;;
70455;SDS011;57916;51.996;5.180;2024-03-23T08:21:30;9.52;;;1.60;;
70455;SDS011;57916;51.996;5.180;2024-03-23T08:23:56;11.38;;;1.67;;
70455;SDS011;57916;51.996;5.180;2024-03-23T08:26:23;13.80;;;2.08;;
70455;SDS011;57916;51.996;5.180;2024-03-23T08:28:49;8.83;;;1.80;;
70455;SDS011;57916;51.996;5.180;2024-03-23T08:31:15;11.65;;;1.80;;
70455;SDS011;57916;51.996;5.180;2024-03-23T08:33:41;9.70;;;1.55;;
70455;SDS011;57916;51.996;5.180;2024-03-23T08:36:10;7.50;;;1.83;;
70455;SDS011;57916;51.996;5.180;2024-03-23T08:38:39;8.60;;;1.90;;
70455;SDS011;57916;51.996;5.180;2024-03-23T08:41:10;7.63;;;1.63;;
70455;SDS011;57916;51.996;5.180;2024-03-23T08:43:40;8.65;;;1.67;;
70455;SDS011;57916;51.996;5.180;2024-03-23T08:46:07;8.30;;;1.80;;
70455;SDS011;57916;51.996;5.180;2024-03-23T08:48:35;19.70;;;2.00;;
70455;SDS011;57916;51.996;5.180;2024-03-23T08:51:06;12.07;;;1.73;;
70455;SDS011;57916;51.996;5.180;2024-03-23T08:53:34;9.77;;;1.98;;
70455;SDS011;57916;51.996;5.180;2024-03-23T08:56:02;8.10;;;1.60;;
70455;SDS011;57916;51.996;5.180;2024-03-23T08:58:30;7.55;;;1.83;;
70455;SDS011;57916;51.996;5.180;2024-03-23T09:01:00;12.65;;;2.85;;
70455;SDS011;57916;51.996;5.180;2024-03-23T09:03:29;12.13;;;3.10;;
70455;SDS011;57916;51.996;5.180;2024-03-23T09:05:56;20.57;;;5.60;;
70455;SDS011;57916;51.996;5.180;2024-03-23T09:08:23;12.13;;;3.63;;
70455;SDS011;57916;51.996;5.180;2024-03-23T09:10:50;14.50;;;4.47;;
70455;SDS011;57916;51.996;5.180;2024-03-23T09:13:17;12.13;;;2.42;;
70455;SDS011;57916;51.996;5.180;2024-03-23T09:15:47;9.03;;;1.90;;
70455;SDS011;57916;51.996;5.180;2024-03-23T09:18:14;14.55;;;3.90;;
70455;SDS011;57916;51.996;5.180;2024-03-23T09:20:40;8.05;;;1.70;;
70455;SDS011;57916;51.996;5.180;2024-03-23T09:23:06;13.68;;;3.47;;
70455;SDS011;57916;51.996;5.180;2024-03-23T09:25:35;10.73;;;2.33;;
70455;SDS011;57916;51.996;5.180;2024-03-23T09:28:03;8.25;;;1.90;;
70455;SDS011;57916;51.996;5.180;2024-03-23T09:30:31;8.93;;;1.83;;
70455;SDS011;57916;51.996;5.180;2024-03-23T09:32:59;8.93;;;2.20;;
70455;SDS011;57916;51.996;5.180;2024-03-23T09:35:25;9.07;;;2.47;;
70455;SDS011;57916;51.996;5.180;2024-03-23T09:37:51;5.97;;;1.65;;
70455;SDS011;57916;51.996;5.180;2024-03-23T09:40:17;11.40;;;2.05;;
70455;SDS011;57916;51.996;5.180;2024-03-23T09:42:43;10.05;;;1.75;;
70455;SDS011;57916;51.996;5.180;2024-03-23T09:45:26;10.02;;;1.83;;
70455;SDS011;57916;51.996;5.180;2024-03-23T09:47:57;8.32;;;1.15;;
70455;SDS011;57916;51.996;5.180;2024-03-23T09:50:23;12.75;;;1.65;;
70455;SDS011;57916;51.996;5.180;2024-03-23T09:52:49;5.25;;;1.27;;
70455;SDS011;57916;51.996;5.180;2024-03-23T09:55:15;8.02;;;1.40;;
70455;SDS011;57916;51.996;5.180;2024-03-23T09:57:41;6.20;;;1.38;;
70455;SDS011;57916;51.996;5.180;2024-03-23T10:00:08;11.05;;;2.13;;
70455;SDS011;57916;51.996;5.180;2024-03-23T10:02:34;14.10;;;2.10;;
70455;SDS011;57916;51.996;5.180;2024-03-23T10:05:01;9.68;;;1.75;;
70455;SDS011;57916;51.996;5.180;2024-03-23T10:07:27;8.75;;;1.80;;
70455;SDS011;57916;51.996;5.180;2024-03-23T10:09:56;4.85;;;1.50;;
70455;SDS011;57916;51.996;5.180;2024-03-23T10:12:22;6.85;;;1.80;;
70455;SDS011;57916;51.996;5.180;2024-03-23T10:14:49;7.63;;;1.70;;
70455;SDS011;57916;51.996;5.180;2024-03-23T10:17:17;8.70;;;1.73;;
70455;SDS011;57916;51.996;5.180;2024-03-23T10:19:51;7.32;;;1.75;;
70455;SDS011;57916;51.996;5.180;2024-03-23T10:22:19;7.88;;;1.50;;
70455;SDS011;57916;51.996;5.180;2024-03-23T10:24:46;9.32;;;1.77;;
70455;SDS011;57916;51.996;5.180;2024-03-23T10:27:23;8.25;;;1.92;;
70455;SDS011;57916;51.996;5.180;2024-03-23T10:29:49;7.63;;;1.70;;
70455;SDS011;57916;51.996;5.180;2024-03-23T10:32:18;10.17;;;1.83;;
70455;SDS011;57916;51.996;5.180;2024-03-23T10:34:45;8.90;;;2.08;;
70455;SDS011;57916;51.996;5.180;2024-03-23T10:37:11;9.35;;;1.55;;
70455;SDS011;57916;51.996;5.180;2024-03-23T10:39:41;7.57;;;1.50;;
70455;SDS011;57916;51.996;5.180;2024-03-23T10:42:08;9.80;;;1.83;;
70455;SDS011;57916;51.996;5.180;2024-03-23T10:44:38;8.45;;;1.63;;
70455;SDS011;57916;51.996;5.180;2024-03-23T10:47:04;6.65;;;1.70;;
70455;SDS011;57916;51.996;5.180;2024-03-23T10:49:34;7.10;;;1.60;;
70455;SDS011;57916;51.996;5.180;2024-03-23T10:52:04;10.30;;;2.10;;
70455;SDS011;57916;51.996;5.180;2024-03-23T10:54:31;7.85;;;2.15;;
70455;SDS011;57916;51.996;5.180;2024-03-23T10:59:29;7.45;;;1.70;;
70455;SDS011;57916;51.996;5.180;2024-03-23T11:02:00;7.73;;;1.50;;
70455;SDS011;57916;51.996;5.180;2024-03-23T11:04:32;6.10;;;1.50;;
70455;SDS011;57916;51.996;5.180;2024-03-23T11:06:59;6.68;;;1.80;;
70455;SDS011;57916;51.996;5.180;2024-03-23T11:14:48;12.50;;;1.90;;
70455;SDS011;57916;51.996;5.180;2024-03-23T11:17:19;6.60;;;1.58;;
70455;SDS011;57916;51.996;5.180;2024-03-23T11:25:16;8.13;;;1.58;;
70455;SDS011;57916;51.996;5.180;2024-03-23T11:27:47;10.38;;;1.60;;
70455;SDS011;57916;51.996;5.180;2024-03-23T11:30:17;7.07;;;1.40;;
70455;SDS011;57916;51.996;5.180;2024-03-23T11:32:45;8.50;;;1.80;;
70455;SDS011;57916;51.996;5.180;2024-03-23T11:43:06;8.27;;;1.30;;
70455;SDS011;57916;51.996;5.180;2024-03-23T11:45:38;8.10;;;1.55;;
70455;SDS011;57916;51.996;5.180;2024-03-23T11:48:06;8.15;;;1.45;;
70455;SDS011;57916;51.996;5.180;2024-03-23T11:50:40;6.97;;;1.48;;
70455;SDS011;57916;51.996;5.180;2024-03-23T11:53:11;12.63;;;1.88;;
70455;SDS011;57916;51.996;5.180;2024-03-23T11:56:02;12.40;;;1.60;;
70455;SDS011;57916;51.996;5.180;2024-03-23T11:58:27;10.23;;;1.98;;
70455;SDS011;57916;51.996;5.180;2024-03-23T12:00:57;10.15;;;1.40;;
70455;SDS011;57916;51.996;5.180;2024-03-23T12:03:24;7.07;;;1.67;;
70455;SDS011;57916;51.996;5.180;2024-03-23T12:05:53;11.60;;;1.80;;
70455;SDS011;57916;51.996;5.180;2024-03-23T12:08:20;10.25;;;1.67;;
70455;SDS011;57916;51.996;5.180;2024-03-23T12:10:54;11.53;;;1.97;;
70455;SDS011;57916;51.996;5.180;2024-03-23T12:13:33;8.02;;;1.85;;
70455;SDS011;57916;51.996;5.180;2024-03-23T12:16:09;6.53;;;1.70;;
70455;SDS011;57916;51.996;5.180;2024-03-23T12:18:36;8.75;;;1.45;;
70455;SDS011;57916;51.996;5.180;2024-03-23T12:21:02;6.78;;;1.92;;
70455;SDS011;57916;51.996;5.180;2024-03-23T12:23:29;11.32;;;1.70;;
70455;SDS011;57916;51.996;5.180;2024-03-23T12:25:55;12.20;;;1.80;;
70455;SDS011;57916;51.996;5.180;2024-03-23T12:28:20;8.55;;;2.47;;
70455;SDS011;57916;51.996;5.180;2024-03-23T12:30:47;9.07;;;1.63;;
70455;SDS011;57916;51.996;5.180;2024-03-23T12:33:13;5.72;;;1.50;;
70455;SDS011;57916;51.996;5.180;2024-03-23T12:35:39;9.50;;;1.50;;
70455;SDS011;57916;51.996;5.180;2024-03-23T12:38:05;6.82;;;1.60;;
70455;SDS011;57916;51.996;5.180;2024-03-23T12:40:31;7.95;;;1.60;;
70455;SDS011;57916;51.996;5.180;2024-03-23T12:42:57;8.98;;;1.60;;
70455;SDS011;57916;51.996;5.180;2024-03-23T12:45:23;6.88;;;1.60;;
70455;SDS011;57916;51.996;5.180;2024-03-23T12:47:49;8.25;;;1.50;;
70455;SDS011;57916;51.996;5.180;2024-03-23T12:50:19;8.65;;;1.50;;
70455;SDS011;57916;51.996;5.180;2024-03-23T12:52:45;9.70;;;1.83;;
70455;SDS011;57916;51.996;5.180;2024-03-23T12:55:12;9.45;;;2.00;;
70455;SDS011;57916;51.996;5.180;2024-03-23T12:57:38;9.02;;;1.60;;
70455;SDS011;57916;51.996;5.180;2024-03-23T13:00:06;6.90;;;1.50;;
70455;SDS011;57916;51.996;5.180;2024-03-23T13:02:34;8.75;;;1.60;;
70455;SDS011;57916;51.996;5.180;2024-03-23T13:05:00;8.93;;;1.80;;
70455;SDS011;57916;51.996;5.180;2024-03-23T13:07:27;8.10;;;1.45;;
70455;SDS011;57916;51.996;5.180;2024-03-23T13:09:53;8.70;;;1.63;;
70455;SDS011;57916;51.996;5.180;2024-03-23T13:12:19;8.32;;;1.70;;
70455;SDS011;57916;51.996;5.180;2024-03-23T13:14:46;1.45;;;0.70;;
70455;SDS011;57916;51.996;5.180;2024-03-23T13:17:12;3.53;;;0.80;;
70455;SDS011;57916;51.996;5.180;2024-03-23T13:19:38;4.95;;;0.80;;
70455;SDS011;57916;51.996;5.180;2024-03-23T13:22:04;6.45;;;0.90;;
70455;SDS011;57916;51.996;5.180;2024-03-23T13:24:30;4.60;;;1.15;;
70455;SDS011;57916;51.996;5.180;2024-03-23T13:26:57;5.35;;;1.20;;
70455;SDS011;57916;51.996;5.180;2024-03-23T13:29:23;7.07;;;1.10;;
70455;SDS011;57916;51.996;5.180;2024-03-23T13:31:51;6.68;;;1.13;;
70455;SDS011;57916;51.996;5.180;2024-03-23T13:34:17;6.43;;;1.38;;
70455;SDS011;57916;51.996;5.180;2024-03-23T13:36:44;7.45;;;1.50;;
70455;SDS011;57916;51.996;5.180;2024-03-23T13:39:11;5.63;;;1.10;;
70455;SDS011;57916;51.996;5.180;2024-03-23T13:41:41;4.13;;;0.90;;
70455;SDS011;57916;51.996;5.180;2024-03-23T13:44:11;4.13;;;0.70;;
70455;SDS011;57916;51.996;5.180;2024-03-23T13:46:38;3.92;;;0.63;;
70455;SDS011;57916;51.996;5.180;2024-03-23T13:49:05;6.10;;;0.80;;
70455;SDS011;57916;51.996;5.180;2024-03-23T13:51:32;5.57;;;1.30;;
70455;SDS011;57916;51.996;5.180;2024-03-23T13:53:58;7.20;;;1.13;;
70455;SDS011;57916;51.996;5.180;2024-03-23T13:56:30;10.60;;;1.67;;
70455;SDS011;57916;51.996;5.180;2024-03-23T13:58:56;9.05;;;1.60;;
70455;SDS011;57916;51.996;5.180;2024-03-23T14:01:23;6.47;;;1.40;;
70455;SDS011;57916;51.996;5.180;2024-03-23T14:03:49;9.02;;;1.48;;
70455;SDS011;57916;51.996;5.180;2024-03-23T14:06:15;9.80;;;1.40;;
70455;SDS011;57916;51.996;5.180;2024-03-23T14:08:42;7.20;;;1.40;;
70455;SDS011;57916;51.996;5.180;2024-03-23T14:11:08;10.93;;;1.87;;
70455;SDS011;57916;51.996;5.180;2024-03-23T14:13:35;5.77;;;1.60;;
70455;SDS011;57916;51.996;5.180;2024-03-23T14:16:02;8.50;;;1.50;;
70455;SDS011;57916;51.996;5.180;2024-03-23T14:18:29;9.32;;;2.72;;
70455;SDS011;57916;51.996;5.180;2024-03-23T14:20:59;8.43;;;1.40;;
70455;SDS011;57916;51.996;5.180;2024-03-23T14:23:26;7.40;;;1.48;;
70455;SDS011;57916;51.996;5.180;2024-03-23T14:25:59;8.27;;;1.33;;
70455;SDS011;57916;51.996;5.180;2024-03-23T14:28:26;10.55;;;1.40;;
70455;SDS011;57916;51.996;5.180;2024-03-23T14:30:54;7.00;;;1.15;;
70455;SDS011;57916;51.996;5.180;2024-03-23T14:33:21;8.13;;;1.20;;
70455;SDS011;57916;51.996;5.180;2024-03-23T14:35:54;7.95;;;1.50;;
70455;SDS011;57916;51.996;5.180;2024-03-23T14:38:23;7.40;;;1.50;;
70455;SDS011;57916;51.996;5.180;2024-03-23T14:40:49;13.13;;;2.08;;
70455;SDS011;57916;51.996;5.180;2024-03-23T14:43:18;8.33;;;1.77;;
70455;SDS011;57916;51.996;5.180;2024-03-23T14:48:33;4.20;;;1.30;;
70455;SDS011;57916;51.996;5.180;2024-03-23T14:51:00;4.32;;;0.70;;
70455;SDS011;57916;51.996;5.180;2024-03-23T14:53:30;5.30;;;1.10;;
70455;SDS011;57916;51.996;5.180;2024-03-23T14:56:00;5.50;;;1.08;;
70455;SDS011;57916;51.996;5.180;2024-03-23T14:58:27;5.55;;;0.68;;
70455;SDS011;57916;51.996;5.180;2024-03-23T15:01:01;4.13;;;0.80;;
70455;SDS011;57916;51.996;5.180;2024-03-23T15:03:27;3.92;;;0.73;;
70455;SDS011;57916;51.996;5.180;2024-03-23T15:05:54;5.47;;;0.82;;
70455;SDS011;57916;51.996;5.180;2024-03-23T15:08:25;3.80;;;0.90;;
70455;SDS011;57916;51.996;5.180;2024-03-23T15:10:53;8.27;;;0.90;;
70455;SDS011;57916;51.996;5.180;2024-03-23T15:13:19;5.90;;;0.98;;
70455;SDS011;57916;51.996;5.180;2024-03-23T15:15:48;6.20;;;0.98;;
70455;SDS011;57916;51.996;5.180;2024-03-23T15:18:14;5.90;;;1.13;;
70455;SDS011;57916;51.996;5.180;2024-03-23T15:20:41;4.15;;;1.00;;
70455;SDS011;57916;51.996;5.180;2024-03-23T15:23:16;7.38;;;1.02;;
70455;SDS011;57916;51.996;5.180;2024-03-23T15:25:42;6.87;;;1.37;;
70455;SDS011;57916;51.996;5.180;2024-03-23T15:28:08;8.50;;;1.30;;
70455;SDS011;57916;51.996;5.180;2024-03-23T15:30:35;5.60;;;1.27;;
70455;SDS011;57916;51.996;5.180;2024-03-23T15:33:01;4.47;;;1.10;;
70455;SDS011;57916;51.996;5.180;2024-03-23T15:35:27;4.18;;;1.00;;
70455;SDS011;57916;51.996;5.180;2024-03-23T15:37:54;6.30;;;1.55;;
70455;SDS011;57916;51.996;5.180;2024-03-23T15:40:20;4.80;;;1.13;;
70455;SDS011;57916;51.996;5.180;2024-03-23T15:42:46;7.30;;;1.30;;
70455;SDS011;57916;51.996;5.180;2024-03-23T15:45:12;9.05;;;1.73;;
70455;SDS011;57916;51.996;5.180;2024-03-23T15:47:38;6.18;;;1.40;;
70455;SDS011;57916;51.996;5.180;2024-03-23T15:50:04;5.03;;;1.27;;
70455;SDS011;57916;51.996;5.180;2024-03-23T15:52:34;6.78;;;1.33;;
70455;SDS011;57916;51.996;5.180;2024-03-23T15:55:02;9.13;;;1.53;;
70455;SDS011;57916;51.996;5.180;2024-03-23T15:57:34;5.00;;;1.20;;
70455;SDS011;57916;51.996;5.180;2024-03-23T16:00:00;6.78;;;1.17;;